createdAt,value
2022-08-04T00:01:49.839Z,2.40
2022-08-04T00:04:53.410Z,2.60
2022-08-04T00:07:43.945Z,2.50
2022-08-04T00:10:17.849Z,2.30
2022-08-04T00:12:50.350Z,2.60
2022-08-04T00:15:20.270Z,2.70
2022-08-04T00:17:54.435Z,3.00
2022-08-04T00:20:25.393Z,2.30
2022-08-04T00:22:54.098Z,2.50
2022-08-04T00:25:23.144Z,2.20
2022-08-04T00:27:51.993Z,2.40
2022-08-04T00:30:21.054Z,2.30
2022-08-04T00:32:50.223Z,2.30
2022-08-04T00:35:19.319Z,2.40
2022-08-04T00:37:47.905Z,2.30
2022-08-04T00:40:16.077Z,2.40
2022-08-04T00:43:09.339Z,2.40
2022-08-04T00:46:12.513Z,2.70
2022-08-04T00:49:10.606Z,2.60
2022-08-04T00:51:41.956Z,2.50
2022-08-04T00:54:34.449Z,2.40
2022-08-04T00:57:34.656Z,2.70
2022-08-04T01:00:10.537Z,2.40
2022-08-04T01:03:30.333Z,2.40
2022-08-04T01:06:35.203Z,2.90
2022-08-04T01:09:21.354Z,2.20
2022-08-04T01:12:05.129Z,2.50
2022-08-04T01:14:59.825Z,2.50
2022-08-04T01:17:46.744Z,2.40
2022-08-04T01:20:22.183Z,2.50
2022-08-04T01:22:59.493Z,1.90
2022-08-04T01:26:02.876Z,2.20
2022-08-04T01:29:09.901Z,2.20
2022-08-04T01:32:04.393Z,2.40
2022-08-04T01:34:51.629Z,3.10
2022-08-04T01:37:41.448Z,2.20
2022-08-04T01:40:13.282Z,2.70
2022-08-04T01:42:43.250Z,2.30
2022-08-04T01:45:13.762Z,2.30
2022-08-04T01:47:54.431Z,2.20
2022-08-04T01:50:24.503Z,2.50
2022-08-04T01:52:54.788Z,2.40
2022-08-04T01:55:23.546Z,2.60
2022-08-04T01:57:53.967Z,2.10
2022-08-04T02:00:27.070Z,2.40
2022-08-04T02:02:57.215Z,2.00
2022-08-04T02:06:03.210Z,2.20
2022-08-04T02:08:35.655Z,2.20
2022-08-04T02:11:18.274Z,2.30
2022-08-04T02:13:56.344Z,2.30
2022-08-04T02:16:53.811Z,2.60
2022-08-04T02:19:40.197Z,2.30
2022-08-04T02:22:14.317Z,2.50
2022-08-04T02:25:02.720Z,2.30
2022-08-04T02:28:00.493Z,2.40
2022-08-04T02:30:38.074Z,2.10
2022-08-04T02:33:09.323Z,2.20
2022-08-04T02:35:40.579Z,2.40
2022-08-04T02:38:25.789Z,2.60
2022-08-04T02:40:59.206Z,2.30
2022-08-04T02:43:51.836Z,2.50
2022-08-04T02:46:21.325Z,2.60
2022-08-04T02:48:53.285Z,2.70
2022-08-04T02:51:28.365Z,2.60
2022-08-04T02:53:59.393Z,2.20
2022-08-04T02:56:30.469Z,2.50
2022-08-04T02:59:02.408Z,2.40
2022-08-04T03:01:31.843Z,2.70
2022-08-04T03:04:12.140Z,2.50
2022-08-04T03:07:15.640Z,2.40
2022-08-04T03:10:02.961Z,3.00
2022-08-04T03:13:20.754Z,2.60
2022-08-04T03:16:32.602Z,2.70
2022-08-04T03:19:40.586Z,2.60
2022-08-04T03:22:18.239Z,2.80
2022-08-04T03:25:21.089Z,3.00
2022-08-04T03:28:23.053Z,2.80
2022-08-04T03:31:16.212Z,3.00
2022-08-04T03:33:48.544Z,2.80
2022-08-04T03:36:35.058Z,2.90
2022-08-04T03:39:20.457Z,2.80
2022-08-04T03:42:04.605Z,2.20
2022-08-04T03:44:55.308Z,2.90
2022-08-04T03:47:51.396Z,3.30
2022-08-04T03:50:29.141Z,2.90
2022-08-04T03:53:20.167Z,2.90
2022-08-04T03:56:20.376Z,3.00
2022-08-04T03:59:21.420Z,3.10
2022-08-04T04:02:02.041Z,3.20
2022-08-04T04:04:50.388Z,3.40
2022-08-04T04:07:46.771Z,3.00
2022-08-04T04:10:26.829Z,3.30
2022-08-04T04:13:23.607Z,3.20
2022-08-04T04:16:12.869Z,3.60
2022-08-04T04:19:05.819Z,3.20
2022-08-04T04:21:48.865Z,3.50
2022-08-04T04:24:32.710Z,3.30
2022-08-04T04:27:27.552Z,3.80
2022-08-04T04:30:37.297Z,3.00
2022-08-04T04:33:40.089Z,3.70
2022-08-04T04:36:17.844Z,3.30
2022-08-04T04:39:06.410Z,3.30
2022-08-04T04:42:06.455Z,3.50
2022-08-04T04:45:04.324Z,4.00
2022-08-04T04:48:07.361Z,3.70
2022-08-04T04:51:04.481Z,3.50
2022-08-04T04:53:50.570Z,3.50
2022-08-04T04:56:51.123Z,3.60
2022-08-04T04:59:24.465Z,3.50
2022-08-04T05:02:14.954Z,3.70
2022-08-04T05:05:11.013Z,3.40
2022-08-04T05:07:50.600Z,4.00
2022-08-04T05:10:37.775Z,3.90
2022-08-04T05:14:34.998Z,3.60
2022-08-04T05:16:38.203Z,4.00
2022-08-04T05:19:19.016Z,3.40
2022-08-04T05:21:49.921Z,3.50
2022-08-04T05:24:21.235Z,3.80
2022-08-04T05:26:53.810Z,3.70
2022-08-04T05:29:36.737Z,3.70
2022-08-04T05:32:14.955Z,3.60
2022-08-04T05:34:52.943Z,3.80
2022-08-04T05:37:24.095Z,3.60
2022-08-04T05:40:01.112Z,4.20
2022-08-04T05:42:31.393Z,3.60
2022-08-04T05:45:00.811Z,3.80
2022-08-04T05:47:31.535Z,4.00
2022-08-04T05:50:05.905Z,3.80
2022-08-04T05:52:37.705Z,4.10
2022-08-04T05:55:07.592Z,3.60
2022-08-04T05:57:39.233Z,3.70
2022-08-04T06:00:25.510Z,3.50
2022-08-04T06:02:59.490Z,4.10
2022-08-04T06:05:29.208Z,3.20
2022-08-04T06:08:12.332Z,4.10
2022-08-04T06:10:45.094Z,3.50
2022-08-04T06:13:47.930Z,3.90
2022-08-04T06:16:17.855Z,4.20
2022-08-04T06:19:59.643Z,3.90
2022-08-04T06:21:52.558Z,3.40
2022-08-04T06:24:24.976Z,3.50
2022-08-04T06:26:55.362Z,3.90
2022-08-04T06:29:31.042Z,3.90
2022-08-04T06:32:26.714Z,3.70
2022-08-04T06:35:02.670Z,4.10
2022-08-04T06:37:42.761Z,4.00
2022-08-04T06:40:31.401Z,4.50
2022-08-04T06:43:03.746Z,4.00
2022-08-04T06:45:35.875Z,4.20
2022-08-04T06:48:07.073Z,4.40
2022-08-04T06:51:26.911Z,4.10
2022-08-04T06:53:27.456Z,4.10
2022-08-04T06:55:57.631Z,3.60
2022-08-04T06:58:29.256Z,3.60
2022-08-04T07:01:02.223Z,3.90
2022-08-04T07:03:32.449Z,3.40
2022-08-04T07:06:05.593Z,3.80
2022-08-04T07:08:36.586Z,3.70
2022-08-04T07:11:06.035Z,3.50
2022-08-04T07:13:34.923Z,3.80
2022-08-04T07:16:05.921Z,3.60
2022-08-04T07:18:34.444Z,3.60
2022-08-04T07:21:02.789Z,3.20
2022-08-04T07:23:31.745Z,3.30
2022-08-04T07:26:11.897Z,3.30
2022-08-04T07:28:42.415Z,3.60
2022-08-04T07:31:31.989Z,3.50
2022-08-04T07:34:16.804Z,3.90
2022-08-04T07:36:53.085Z,3.30
2022-08-04T07:39:28.506Z,3.30
2022-08-04T07:42:01.171Z,3.80
2022-08-04T07:44:32.750Z,3.30
2022-08-04T07:47:03.062Z,3.60
2022-08-04T07:49:56.341Z,3.40
2022-08-04T07:52:21.829Z,3.10
2022-08-04T07:54:51.590Z,3.50
2022-08-04T07:57:41.666Z,3.40
2022-08-04T08:00:11.612Z,3.40
2022-08-04T08:02:41.063Z,3.30
2022-08-04T08:05:12.973Z,3.40
2022-08-04T08:07:50.758Z,3.30
2022-08-04T08:10:25.339Z,3.50
2022-08-04T08:12:54.762Z,3.10
2022-08-04T08:15:23.570Z,3.30
2022-08-04T08:17:59.577Z,3.20
2022-08-04T08:20:32.898Z,3.10
2022-08-04T08:23:03.590Z,2.90
2022-08-04T08:25:33.429Z,3.00
2022-08-04T08:28:04.948Z,3.10
2022-08-04T08:30:34.544Z,3.40
2022-08-04T08:33:10.323Z,2.90
2022-08-04T08:35:53.889Z,3.40
2022-08-04T08:38:41.441Z,2.90
2022-08-04T08:41:31.553Z,2.90
2022-08-04T08:44:37.827Z,2.90
2022-08-04T08:48:04.983Z,3.10
2022-08-04T08:50:41.831Z,3.00
2022-08-04T08:53:17.056Z,2.50
2022-08-04T08:56:16.517Z,3.00
2022-08-04T08:59:00.934Z,2.80
2022-08-04T09:01:47.029Z,2.80
2022-08-04T09:04:56.363Z,2.90
2022-08-04T09:07:24.711Z,2.70
2022-08-04T09:10:23.388Z,2.80
2022-08-04T09:13:01.053Z,3.00
2022-08-04T09:15:55.739Z,2.90
2022-08-04T09:18:45.606Z,2.80
2022-08-04T09:21:23.325Z,3.50
2022-08-04T09:24:37.211Z,3.00
2022-08-04T09:27:18.557Z,3.20
2022-08-04T09:30:03.653Z,2.90
2022-08-04T09:33:09.865Z,2.80
2022-08-04T09:36:00.312Z,2.70
2022-08-04T09:38:43.588Z,2.50
2022-08-04T09:41:48.175Z,2.80
2022-08-04T09:44:51.062Z,3.80
2022-08-04T09:47:15.135Z,2.80
2022-08-04T09:49:58.204Z,3.10
2022-08-04T09:52:54.845Z,3.20
2022-08-04T09:55:53.873Z,3.00
2022-08-04T09:58:48.137Z,2.70
2022-08-04T10:01:23.156Z,2.80
2022-08-04T10:04:03.676Z,3.20
2022-08-04T10:07:00.813Z,3.20
2022-08-04T10:09:41.806Z,3.20
2022-08-04T10:12:23.648Z,2.90
2022-08-04T10:14:58.478Z,3.10
2022-08-04T10:17:56.771Z,2.90
2022-08-04T10:20:56.748Z,2.90
2022-08-04T10:26:45.763Z,2.80
2022-08-04T10:29:24.684Z,2.70
2022-08-04T10:32:26.654Z,2.80
2022-08-04T10:35:13.462Z,2.80
2022-08-04T10:38:10.446Z,2.70
2022-08-04T10:41:00.608Z,2.90
2022-08-04T10:43:51.099Z,2.90
2022-08-04T10:46:27.060Z,2.80
2022-08-04T10:49:06.862Z,3.00
2022-08-04T10:51:59.963Z,2.80
2022-08-04T10:54:51.786Z,2.80
2022-08-04T10:57:45.485Z,3.00
2022-08-04T11:00:20.198Z,3.00
2022-08-04T11:02:54.257Z,3.10
2022-08-04T11:05:26.087Z,3.10
2022-08-04T11:08:01.833Z,2.90
2022-08-04T11:10:37.055Z,3.00
2022-08-04T11:13:21.902Z,3.40
2022-08-04T11:16:04.427Z,3.00
2022-08-04T11:18:47.696Z,3.30
2022-08-04T11:21:22.123Z,3.20
2022-08-04T11:24:05.297Z,3.20
2022-08-04T11:26:49.453Z,3.70
2022-08-04T11:29:28.918Z,3.00
2022-08-04T11:32:01.565Z,3.30
2022-08-04T11:34:31.067Z,3.40
2022-08-04T11:37:03.603Z,3.10
2022-08-04T11:40:02.727Z,3.40
2022-08-04T11:42:38.493Z,3.90
2022-08-04T11:45:29.301Z,2.80
2022-08-04T11:48:01.195Z,2.80
2022-08-04T11:50:34.967Z,3.40
2022-08-04T11:53:04.571Z,3.10
2022-08-04T11:56:06.971Z,3.60
2022-08-04T11:58:23.448Z,3.20
2022-08-04T12:01:21.588Z,3.60
2022-08-04T12:04:17.188Z,3.40
2022-08-04T12:07:15.031Z,3.40
2022-08-04T12:10:42.788Z,3.80
2022-08-04T12:13:42.128Z,3.60
2022-08-04T12:16:22.560Z,3.20
2022-08-04T12:19:03.350Z,3.20
2022-08-04T12:21:50.341Z,2.80
2022-08-04T12:24:27.943Z,2.80
2022-08-04T12:26:58.981Z,2.60
2022-08-04T12:29:33.619Z,3.00
2022-08-04T12:32:17.229Z,2.40
2022-08-04T12:34:55.134Z,2.90
2022-08-04T12:37:41.737Z,3.00
2022-08-04T12:40:29.770Z,2.90
2022-08-04T12:43:17.769Z,2.80
2022-08-04T12:45:55.409Z,3.00
2022-08-04T12:48:26.656Z,2.80
2022-08-04T12:50:58.003Z,2.90
2022-08-04T12:53:50.636Z,2.80
2022-08-04T12:56:28.014Z,2.30
2022-08-04T12:59:04.125Z,2.70
2022-08-04T13:02:10.525Z,2.50
2022-08-04T13:04:29.588Z,2.40
2022-08-04T13:07:04.478Z,2.60
2022-08-04T13:09:34.708Z,3.00
2022-08-04T13:12:11.816Z,2.70
2022-08-04T13:14:45.982Z,2.70
2022-08-04T13:17:14.696Z,2.60
2022-08-04T13:19:53.221Z,3.00
2022-08-04T13:22:27.899Z,2.70
2022-08-04T13:26:40.364Z,2.40
2022-08-04T13:27:48.845Z,2.90
2022-08-04T13:30:26.007Z,4.80
2022-08-04T13:35:55.971Z,2.60
2022-08-04T13:38:24.657Z,2.90
2022-08-04T13:40:54.224Z,2.70
2022-08-04T13:44:15.435Z,2.40
2022-08-04T13:46:28.189Z,2.60
2022-08-04T13:49:31.349Z,2.50
2022-08-04T13:51:57.997Z,2.90
2022-08-04T13:54:42.478Z,2.60
2022-08-04T13:57:19.247Z,2.80
2022-08-04T13:59:52.570Z,2.60
2022-08-04T14:02:40.986Z,2.70
2022-08-04T14:05:18.484Z,2.40
2022-08-04T14:07:54.357Z,2.50
2022-08-04T14:10:24.039Z,2.60
2022-08-04T14:12:52.931Z,2.80
2022-08-04T14:16:02.159Z,2.40
2022-08-04T14:18:32.955Z,2.70
2022-08-04T14:21:16.797Z,2.80
2022-08-04T14:23:54.175Z,2.80
2022-08-04T14:26:33.081Z,2.60
2022-08-04T14:29:27.629Z,2.80
2022-08-04T14:32:03.061Z,2.80
2022-08-04T14:34:38.334Z,2.60
2022-08-04T14:37:18.431Z,2.90
2022-08-04T14:40:08.701Z,2.60
2022-08-04T14:42:55.137Z,2.80
2022-08-04T14:45:54.241Z,2.60
2022-08-04T14:48:24.093Z,2.80
2022-08-04T14:50:52.882Z,2.40
2022-08-04T14:53:27.049Z,2.60
2022-08-04T14:55:58.973Z,2.60
2022-08-04T14:58:36.284Z,2.90
2022-08-04T15:01:10.779Z,2.70
2022-08-04T15:03:50.873Z,2.70
2022-08-04T15:06:26.178Z,2.80
2022-08-04T15:09:00.766Z,2.50
2022-08-04T15:11:30.226Z,2.30
2022-08-04T15:13:59.378Z,2.60
2022-08-04T15:16:30.557Z,2.60
2022-08-04T15:19:01.030Z,2.50
2022-08-04T15:21:30.674Z,2.70
2022-08-04T15:23:59.427Z,2.40
2022-08-04T15:26:52.095Z,2.80
2022-08-04T15:29:59.408Z,2.90
2022-08-04T15:32:26.039Z,3.10
2022-08-04T15:35:03.642Z,2.50
2022-08-04T15:37:42.791Z,2.70
2022-08-04T15:40:32.772Z,2.60
2022-08-04T15:43:39.901Z,2.70
2022-08-04T15:46:43.881Z,3.00
2022-08-04T15:48:56.825Z,2.80
2022-08-04T15:51:32.290Z,2.80
2022-08-04T15:54:21.190Z,2.80
2022-08-04T15:57:01.324Z,2.60
2022-08-04T15:59:57.326Z,3.10
2022-08-04T16:02:35.557Z,3.00
2022-08-04T16:05:17.670Z,2.60
2022-08-04T16:08:11.240Z,2.90
2022-08-04T16:10:42.049Z,3.00
2022-08-04T16:13:14.880Z,2.90
2022-08-04T16:15:54.586Z,2.80
2022-08-04T16:18:27.248Z,3.10
2022-08-04T16:20:58.065Z,2.60
2022-08-04T16:24:02.294Z,3.10
2022-08-04T16:26:37.965Z,3.10
2022-08-04T16:29:23.104Z,3.50
2022-08-04T16:32:11.187Z,2.90
2022-08-04T16:34:54.414Z,2.90
2022-08-04T16:37:29.581Z,3.30
2022-08-04T16:40:34.486Z,3.60
2022-08-04T16:43:06.391Z,3.50
2022-08-04T16:45:48.476Z,3.40
2022-08-04T16:48:19.615Z,3.50
2022-08-04T16:53:52.005Z,3.50
2022-08-04T16:58:54.552Z,3.70
2022-08-04T17:01:33.653Z,3.20
2022-08-04T17:04:05.766Z,3.80
2022-08-04T17:06:40.359Z,3.70
2022-08-04T17:09:18.464Z,3.60
2022-08-04T17:11:48.541Z,3.40
2022-08-04T17:14:30.307Z,3.70
2022-08-04T17:17:02.120Z,3.70
2022-08-04T17:22:10.185Z,3.40
2022-08-04T17:24:41.065Z,3.40
2022-08-04T17:28:08.509Z,3.60
2022-08-04T17:29:59.803Z,3.40
2022-08-04T17:32:28.490Z,3.70
2022-08-04T17:35:04.053Z,3.90
2022-08-04T17:37:39.635Z,3.70
2022-08-04T17:40:22.872Z,3.70
2022-08-04T17:44:03.015Z,4.40
2022-08-04T17:46:36.062Z,3.90
2022-08-04T17:49:09.527Z,4.30
2022-08-04T17:52:05.580Z,5.20
2022-08-04T17:54:37.459Z,4.40
2022-08-04T17:57:21.553Z,3.90
2022-08-04T17:59:58.776Z,4.00
2022-08-04T18:02:34.811Z,4.30
2022-08-04T18:05:11.568Z,4.60
2022-08-04T18:08:41.417Z,4.50
2022-08-04T18:10:55.182Z,4.30
2022-08-04T18:13:26.669Z,4.70
2022-08-04T18:16:14.559Z,4.70
2022-08-04T18:19:11.749Z,4.60
2022-08-04T18:21:46.606Z,4.60
2022-08-04T18:24:35.762Z,4.90
2022-08-04T18:27:24.640Z,4.80
2022-08-04T18:30:31.098Z,5.20
2022-08-04T18:33:10.136Z,5.00
2022-08-04T18:36:34.100Z,5.70
2022-08-04T18:38:23.947Z,5.80
2022-08-04T18:43:41.298Z,5.60
2022-08-04T18:46:14.596Z,7.20
2022-08-04T18:48:52.111Z,5.90
2022-08-04T18:51:23.567Z,5.60
2022-08-04T18:53:58.594Z,7.00
2022-08-04T18:56:32.490Z,7.90
2022-08-04T18:59:04.045Z,5.80
2022-08-04T19:02:12.343Z,5.90
2022-08-04T19:04:34.063Z,6.40
2022-08-04T19:07:29.115Z,5.40
2022-08-04T19:09:57.727Z,6.60
2022-08-04T19:12:28.993Z,5.90
2022-08-04T19:15:08.544Z,5.40
2022-08-04T19:17:57.148Z,5.50
2022-08-04T19:20:30.790Z,6.00
2022-08-04T19:24:30.464Z,6.10
2022-08-04T19:25:59.414Z,5.60
2022-08-04T19:28:34.943Z,5.30
2022-08-04T19:31:09.025Z,6.10
2022-08-04T19:33:59.311Z,6.70
2022-08-04T19:36:31.078Z,6.50
2022-08-04T19:39:04.138Z,5.90
2022-08-04T19:42:05.573Z,6.30
2022-08-04T19:44:30.083Z,6.20
2022-08-04T19:47:00.583Z,6.40
2022-08-04T19:50:05.315Z,7.10
2022-08-04T19:52:34.323Z,7.10
2022-08-04T19:55:09.932Z,6.80
2022-08-04T19:57:46.564Z,6.50
2022-08-04T20:03:11.518Z,6.60
2022-08-04T20:08:27.940Z,6.80
2022-08-04T20:10:57.750Z,8.00
2022-08-04T20:13:37.212Z,7.00
2022-08-04T20:16:20.277Z,7.90
2022-08-04T20:19:00.776Z,6.70
2022-08-04T20:21:36.666Z,7.50
2022-08-04T20:24:40.782Z,6.80
2022-08-04T20:27:15.750Z,6.90
2022-08-04T20:29:50.452Z,7.70
2022-08-04T20:32:21.994Z,6.80
2022-08-04T20:34:52.872Z,6.90
2022-08-04T20:37:25.887Z,6.90
2022-08-04T20:40:14.942Z,7.50
2022-08-04T20:42:46.121Z,7.70
2022-08-04T20:45:16.401Z,7.80
2022-08-04T20:47:53.200Z,7.60
2022-08-04T20:50:29.608Z,7.10
2022-08-04T20:52:59.526Z,7.50
2022-08-04T20:55:29.614Z,7.00
2022-08-04T20:58:02.559Z,7.70
2022-08-04T21:00:32.650Z,7.40
2022-08-04T21:03:01.325Z,7.30
2022-08-04T21:05:31.492Z,7.60
2022-08-04T21:08:01.889Z,7.40
2022-08-04T21:10:30.699Z,7.40
2022-08-04T21:12:59.494Z,7.30
2022-08-04T21:15:58.686Z,7.40
2022-08-04T21:18:17.122Z,7.70
2022-08-04T21:20:48.297Z,7.60
2022-08-04T21:23:16.886Z,7.70
2022-08-04T21:25:50.042Z,7.40
2022-08-04T21:28:20.461Z,6.80
2022-08-04T21:30:54.363Z,8.40
2022-08-04T21:33:50.295Z,7.50
2022-08-04T21:36:16.147Z,7.40
2022-08-04T21:38:51.668Z,7.40
2022-08-04T21:41:24.801Z,7.20
2022-08-04T21:43:56.277Z,7.10
2022-08-04T21:46:30.142Z,7.30
2022-08-04T21:48:59.618Z,7.60
2022-08-04T21:54:20.882Z,7.30
2022-08-04T21:56:51.903Z,7.40
2022-08-04T21:59:23.532Z,7.00
2022-08-04T22:02:00.041Z,7.20
2022-08-04T22:04:30.623Z,7.30
2022-08-04T22:07:03.122Z,7.60
2022-08-04T22:09:38.695Z,7.40
2022-08-04T22:12:12.329Z,7.80
2022-08-04T22:14:41.330Z,7.50
2022-08-04T22:17:13.304Z,7.30
2022-08-04T22:19:55.317Z,7.70
2022-08-04T22:22:29.147Z,7.00
2022-08-04T22:25:12.378Z,7.30
2022-08-04T22:28:02.718Z,6.90
2022-08-04T22:30:37.126Z,7.30
2022-08-04T22:33:08.602Z,6.70
2022-08-04T22:35:48.880Z,6.80
2022-08-04T22:38:34.008Z,6.70
2022-08-04T22:41:12.577Z,7.00
2022-08-04T22:43:42.487Z,7.00
2022-08-04T22:46:30.458Z,6.40
2022-08-04T22:48:58.940Z,6.30
2022-08-04T22:51:27.897Z,6.40
2022-08-04T22:54:00.268Z,6.20
2022-08-04T22:59:10.882Z,6.50
2022-08-04T23:01:59.327Z,7.00
2022-08-04T23:04:31.681Z,6.40
2022-08-04T23:07:05.375Z,6.80
2022-08-04T23:09:49.874Z,6.20
2022-08-04T23:12:26.520Z,6.50
2022-08-04T23:14:59.696Z,5.40
2022-08-04T23:17:29.102Z,5.80
2022-08-04T23:19:59.251Z,5.30
2022-08-04T23:22:41.034Z,5.40
2022-08-04T23:25:16.318Z,5.50
2022-08-04T23:27:50.373Z,5.80
2022-08-04T23:30:29.446Z,5.40
2022-08-04T23:32:58.860Z,5.40
2022-08-04T23:35:28.094Z,5.30
2022-08-04T23:37:59.886Z,5.80
2022-08-04T23:40:49.926Z,5.30
2022-08-04T23:43:19.449Z,5.20
2022-08-04T23:46:04.664Z,5.20
2022-08-04T23:48:40.880Z,5.20
2022-08-04T23:51:15.271Z,5.10
2022-08-04T23:54:02.238Z,4.90
2022-08-04T23:56:34.390Z,4.70
2022-08-04T23:59:04.528Z,4.90
